NCAR-RAP Real-Time Weather Data

Output produced by METARs form (08 May 2021  01:05 UTC)
found at http://weather.rap.ucar.edu/surface/
 
KGLD 080053Z AUTO 13013G21KT 10SM CLR 25/09 A2979 RMK AO2 SLP060 T02500089
KGLD 072353Z AUTO 15014G22KT 10SM CLR 27/08 A2980 RMK AO2 SLP063 T02720083 10289 20228 56021
KGLD 072253Z AUTO 13016G21KT 10SM CLR 28/08 A2982 RMK AO2 SLP066 T02830083
KGLD 072153Z AUTO 12012G19KT 10SM CLR 29/08 A2984 RMK AO2 PK WND 11028/2108 SLP072 T02890083
KGLD 072053Z AUTO 12014G20KT 10SM CLR 28/08 A2987 RMK AO2 SLP082 T02780083 56026
KGLD 071953Z AUTO 11010KT 10SM CLR 27/08 A2990 RMK AO2 SLP094 T02670078
KGLD 071853Z AUTO 10008KT 070V130 10SM CLR 25/08 A2993 RMK AO2 SLP106 T02500083
KGLD 071753Z AUTO VRB05KT 10SM CLR 23/08 A2996 RMK AO2 SLP119 T02280083 10233 20056 58017
KGLD 071653Z AUTO 27003KT 10SM CLR 20/08 A2999 RMK AO2 SLP135 T02000083
KGLD 071553Z AUTO 21004KT 10SM CLR 16/08 A2999 RMK AO2 SLP137 T01610078
KGLD 071453Z AUTO 22006KT 10SM CLR 14/08 A3002 RMK AO2 SLP145 T01390078 58003
KGLD 071353Z AUTO 21006KT 10SM CLR 11/07 A3004 RMK AO2 SLP153 T01060067
KGLD 071253Z AUTO 17009KT 10SM CLR 07/05 A3003 RMK AO2 SLP151 T00720050
KGLD 071153Z AUTO 17012KT 10SM CLR 06/03 A3003 RMK AO2 SLP148 T00610033 10094 20061 56016